createdAt,value
2023-02-20T00:01:47.164Z,1.41
2023-02-20T00:04:18.700Z,1.41
2023-02-20T00:06:46.902Z,1.41
2023-02-20T00:09:15.021Z,1.43
2023-02-20T00:11:43.334Z,1.44
2023-02-20T00:14:11.255Z,1.46
2023-02-20T00:16:39.373Z,1.48
2023-02-20T00:19:07.327Z,1.51
2023-02-20T00:21:35.175Z,1.54
2023-02-20T00:24:03.188Z,1.56
2023-02-20T00:26:31.130Z,1.59
2023-02-20T00:28:59.006Z,1.61
2023-02-20T00:31:27.662Z,1.62
2023-02-20T00:33:56.142Z,1.64
2023-02-20T00:36:24.123Z,1.65
2023-02-20T00:38:51.948Z,1.67
2023-02-20T00:41:21.999Z,1.67
2023-02-20T00:43:49.988Z,1.67
2023-02-20T00:46:17.982Z,1.67
2023-02-20T00:48:46.083Z,1.69
2023-02-20T00:51:33.539Z,1.71
2023-02-20T00:54:02.078Z,1.73
2023-02-20T00:56:30.999Z,1.74
2023-02-20T00:58:58.903Z,1.76
2023-02-20T01:01:27.833Z,1.78
2023-02-20T01:03:56.115Z,1.78
2023-02-20T01:06:24.805Z,1.80
2023-02-20T01:08:52.848Z,1.81
2023-02-20T01:11:22.548Z,1.82
2023-02-20T01:13:50.592Z,1.82
2023-02-20T01:16:18.741Z,1.84
2023-02-20T01:18:50.092Z,1.85
2023-02-20T01:21:18.696Z,1.85
2023-02-20T01:23:46.612Z,1.87
2023-02-20T01:26:14.904Z,1.87
2023-02-20T01:28:49.155Z,1.89
2023-02-20T01:31:18.039Z,1.88
2023-02-20T01:33:46.042Z,1.88
2023-02-20T01:36:14.781Z,1.88
2023-02-20T01:38:42.918Z,1.87
2023-02-20T01:41:12.208Z,1.87
2023-02-20T01:43:40.495Z,1.87
2023-02-20T01:46:27.137Z,1.87
2023-02-20T01:49:07.983Z,1.87
2023-02-20T01:51:41.728Z,1.88
2023-02-20T01:54:14.731Z,1.87
2023-02-20T01:56:46.980Z,1.87
2023-02-20T01:59:16.938Z,1.87
2023-02-20T02:01:46.542Z,1.87
2023-02-20T02:04:15.514Z,1.86
2023-02-20T02:06:49.848Z,1.85
2023-02-20T02:09:34.360Z,1.84
2023-02-20T02:12:02.769Z,1.84
2023-02-20T02:14:31.761Z,1.84
2023-02-20T02:17:21.805Z,1.85
2023-02-20T02:20:15.893Z,1.86
2023-02-20T02:23:21.611Z,1.87
2023-02-20T02:25:52.490Z,1.87
2023-02-20T02:28:23.811Z,1.86
2023-02-20T02:31:32.734Z,1.86
2023-02-20T02:34:14.497Z,1.88
2023-02-20T02:37:11.333Z,1.87
2023-02-20T02:39:49.138Z,1.86
2023-02-20T02:42:24.413Z,1.87
2023-02-20T02:45:10.445Z,1.87
2023-02-20T02:47:51.131Z,1.86
2023-02-20T02:50:22.352Z,1.86
2023-02-20T02:52:51.940Z,1.86
2023-02-20T02:55:26.507Z,1.87
2023-02-20T02:57:55.572Z,1.86
2023-02-20T03:00:36.580Z,1.85
2023-02-20T03:03:04.356Z,1.85
2023-02-20T03:05:41.092Z,1.86
2023-02-20T03:08:22.708Z,1.86
2023-02-20T03:10:53.506Z,1.86
2023-02-20T03:13:22.185Z,1.85
2023-02-20T03:15:55.021Z,1.85
2023-02-20T03:18:35.919Z,1.85
2023-02-20T03:21:17.259Z,1.86
2023-02-20T03:23:56.547Z,1.84
2023-02-20T03:26:29.972Z,1.83
2023-02-20T03:29:24.403Z,1.82
2023-02-20T03:32:16.468Z,1.81
2023-02-20T03:35:05.254Z,1.79
2023-02-20T03:37:57.513Z,1.79
2023-02-20T03:40:45.407Z,1.77
2023-02-20T03:43:28.038Z,1.76
2023-02-20T03:46:07.162Z,1.74
2023-02-20T03:48:45.799Z,1.73
2023-02-20T03:51:15.244Z,1.72
2023-02-20T03:53:48.921Z,1.72
2023-02-20T03:56:26.959Z,1.72
2023-02-20T03:59:22.495Z,1.72
2023-02-20T04:02:43.821Z,1.72
2023-02-20T04:05:21.718Z,1.72
2023-02-20T04:07:58.978Z,1.72
2023-02-20T04:10:34.926Z,1.74
2023-02-20T04:13:05.105Z,1.76
2023-02-20T04:15:35.567Z,1.80
2023-02-20T04:18:09.981Z,1.82
2023-02-20T04:20:38.391Z,1.83
2023-02-20T04:23:18.058Z,1.85
2023-02-20T04:26:01.681Z,1.89
2023-02-20T04:28:31.812Z,1.90
2023-02-20T04:34:36.176Z,1.91
2023-02-20T04:37:18.939Z,1.93
2023-02-20T04:39:48.462Z,1.95
2023-02-20T04:42:17.351Z,1.99
2023-02-20T04:44:45.544Z,2.03
2023-02-20T04:47:17.123Z,2.06
2023-02-20T04:49:45.347Z,2.09
2023-02-20T04:52:16.215Z,2.12
2023-02-20T04:54:44.184Z,2.15
2023-02-20T04:57:14.206Z,2.17
2023-02-20T04:59:42.408Z,2.21
2023-02-20T05:02:12.829Z,2.22
2023-02-20T05:04:41.437Z,2.24
2023-02-20T05:07:09.616Z,2.26
2023-02-20T05:09:37.576Z,2.28
2023-02-20T05:12:05.937Z,2.29
2023-02-20T05:14:33.848Z,2.30
2023-02-20T05:17:01.743Z,2.32
2023-02-20T05:19:29.732Z,2.34
2023-02-20T05:22:16.060Z,2.37
2023-02-20T05:24:44.910Z,2.40
2023-02-20T05:27:14.912Z,2.43
2023-02-20T05:29:50.804Z,2.44
2023-02-20T05:32:19.906Z,2.46
2023-02-20T05:34:57.232Z,2.48
2023-02-20T05:37:27.525Z,2.49
2023-02-20T05:39:55.474Z,2.52
2023-02-20T05:42:23.403Z,2.54
2023-02-20T05:44:51.409Z,2.57
2023-02-20T05:47:19.471Z,2.57
2023-02-20T05:49:47.740Z,2.57
2023-02-20T05:52:15.730Z,2.57
2023-02-20T05:54:46.802Z,2.56
2023-02-20T05:57:15.910Z,2.55
2023-02-20T05:59:43.842Z,2.54
2023-02-20T06:02:11.861Z,2.53
2023-02-20T06:04:39.951Z,2.53
2023-02-20T06:07:10.505Z,2.54
2023-02-20T06:09:42.990Z,2.54
2023-02-20T06:12:12.650Z,2.55
2023-02-20T06:14:40.537Z,2.57
2023-02-20T06:17:08.618Z,2.59
2023-02-20T06:19:36.524Z,2.62
2023-02-20T06:22:04.414Z,2.64
2023-02-20T06:24:32.377Z,2.67
2023-02-20T06:27:01.668Z,2.70
2023-02-20T06:29:29.514Z,2.75
2023-02-20T06:32:01.109Z,2.77
2023-02-20T06:34:33.528Z,2.80
2023-02-20T06:37:04.811Z,2.84
2023-02-20T06:39:33.468Z,2.87
2023-02-20T06:42:02.393Z,2.92
2023-02-20T06:44:30.704Z,2.96
2023-02-20T06:46:59.190Z,2.99
2023-02-20T06:49:27.081Z,3.02
2023-02-20T06:51:55.107Z,3.07
2023-02-20T06:54:23.022Z,3.13
2023-02-20T06:56:52.563Z,3.19
2023-02-20T06:59:20.446Z,3.23
2023-02-20T07:01:48.356Z,3.25
2023-02-20T07:04:16.460Z,3.26
2023-02-20T07:06:44.622Z,3.28
2023-02-20T07:09:12.605Z,3.28
2023-02-20T07:11:41.443Z,3.29
2023-02-20T07:14:10.061Z,3.31
2023-02-20T07:16:37.977Z,3.34
2023-02-20T07:19:05.941Z,3.37
2023-02-20T07:21:33.883Z,3.40
2023-02-20T07:24:02.537Z,3.45
2023-02-20T07:26:31.208Z,3.49
2023-02-20T07:29:00.641Z,3.54
2023-02-20T07:31:29.311Z,3.59
2023-02-20T07:33:57.973Z,3.66
2023-02-20T07:36:26.250Z,3.75
2023-02-20T07:38:59.437Z,3.83
2023-02-20T07:41:31.755Z,3.88
2023-02-20T07:43:59.767Z,3.93
2023-02-20T07:46:28.215Z,3.95
2023-02-20T07:48:56.008Z,3.97
2023-02-20T07:51:23.889Z,3.97
2023-02-20T07:53:53.279Z,3.99
2023-02-20T07:56:22.512Z,4.02
2023-02-20T07:58:50.889Z,4.07
2023-02-20T08:01:19.789Z,4.14
2023-02-20T08:03:48.004Z,4.26
2023-02-20T08:06:19.757Z,4.40
2023-02-20T08:08:50.249Z,4.54
2023-02-20T08:11:20.092Z,4.70
2023-02-20T08:13:48.151Z,4.85
2023-02-20T08:16:16.429Z,5.00
2023-02-20T08:18:45.160Z,5.10
2023-02-20T08:21:13.181Z,5.17
2023-02-20T08:23:41.034Z,5.21
2023-02-20T08:26:09.838Z,5.21
2023-02-20T08:28:37.911Z,5.19
2023-02-20T08:31:06.438Z,5.16
2023-02-20T08:33:34.602Z,5.12
2023-02-20T08:36:03.180Z,5.08
2023-02-20T08:38:34.565Z,5.02
2023-02-20T08:41:08.292Z,4.91
2023-02-20T08:43:37.910Z,4.81
2023-02-20T08:46:07.291Z,4.71
2023-02-20T08:48:36.444Z,4.59
2023-02-20T08:51:06.109Z,4.48
2023-02-20T08:53:37.138Z,4.35
2023-02-20T08:56:06.899Z,4.26
2023-02-20T08:58:34.813Z,4.17
2023-02-20T09:01:02.821Z,4.11
2023-02-20T09:03:30.860Z,4.03
2023-02-20T09:05:58.789Z,3.98
2023-02-20T09:08:27.347Z,3.93
2023-02-20T09:10:55.803Z,3.89
2023-02-20T09:13:23.905Z,3.85
2023-02-20T09:15:51.920Z,3.82
2023-02-20T09:18:19.973Z,3.78
2023-02-20T09:20:48.319Z,3.73
2023-02-20T09:23:16.220Z,3.68
2023-02-20T09:25:44.166Z,3.63
2023-02-20T09:28:12.198Z,3.60
2023-02-20T09:30:40.242Z,3.59
2023-02-20T09:33:08.554Z,3.56
2023-02-20T09:35:36.466Z,3.54
2023-02-20T09:38:04.444Z,3.52
2023-02-20T09:40:32.847Z,3.50
2023-02-20T09:43:42.830Z,3.45
2023-02-20T09:46:22.880Z,3.34
2023-02-20T09:49:09.720Z,3.23
2023-02-20T09:51:41.609Z,3.13
2023-02-20T09:54:16.072Z,3.03
2023-02-20T09:56:54.447Z,2.95
2023-02-20T09:59:27.293Z,2.87
2023-02-20T10:02:04.401Z,2.78
2023-02-20T10:05:00.444Z,2.70
2023-02-20T10:07:31.026Z,2.61
2023-02-20T10:10:00.267Z,2.54
2023-02-20T10:12:53.046Z,2.50
2023-02-20T10:15:23.882Z,2.44
2023-02-20T10:18:10.659Z,2.41
2023-02-20T10:20:56.371Z,2.37
2023-02-20T10:24:04.867Z,2.34
2023-02-20T10:26:42.726Z,2.32
2023-02-20T10:29:15.672Z,2.30
2023-02-20T10:32:01.994Z,2.28
2023-02-20T10:34:37.823Z,2.27
2023-02-20T10:37:15.667Z,2.27
2023-02-20T10:39:52.714Z,2.27
2023-02-20T10:42:36.086Z,2.28
2023-02-20T10:45:38.087Z,2.31
2023-02-20T10:48:15.180Z,2.34
2023-02-20T10:50:53.703Z,2.38
2023-02-20T10:53:45.025Z,2.41
2023-02-20T10:56:33.156Z,2.45
2023-02-20T10:59:06.915Z,2.50
2023-02-20T11:04:41.478Z,2.52
2023-02-20T11:07:14.745Z,2.53
2023-02-20T11:09:42.810Z,2.54
2023-02-20T11:12:32.738Z,2.54
2023-02-20T11:15:17.250Z,2.55
2023-02-20T11:17:46.413Z,2.58
2023-02-20T11:20:41.550Z,2.60
2023-02-20T11:23:10.474Z,2.60
2023-02-20T11:25:42.145Z,2.60
2023-02-20T11:28:19.397Z,2.60
2023-02-20T11:31:00.990Z,2.60
2023-02-20T11:33:32.998Z,2.62
2023-02-20T11:36:17.187Z,2.67
2023-02-20T11:38:48.672Z,2.74
2023-02-20T11:41:25.864Z,2.80
2023-02-20T11:44:18.382Z,2.87
2023-02-20T11:46:47.494Z,2.96
2023-02-20T11:49:28.394Z,3.04
2023-02-20T11:52:19.598Z,3.12
2023-02-20T11:54:57.062Z,3.22
2023-02-20T11:57:29.111Z,3.30
2023-02-20T12:00:12.544Z,3.39
2023-02-20T12:02:55.418Z,3.49
2023-02-20T12:05:46.618Z,3.56
2023-02-20T12:08:35.562Z,3.65
2023-02-20T12:11:09.580Z,3.76
2023-02-20T12:13:43.863Z,3.87
2023-02-20T12:16:18.066Z,3.97
2023-02-20T12:18:55.151Z,4.08
2023-02-20T12:21:23.276Z,4.18
2023-02-20T12:24:02.190Z,4.26
2023-02-20T12:26:45.199Z,4.34
2023-02-20T12:29:34.999Z,4.43
2023-02-20T12:32:18.563Z,4.52
2023-02-20T12:35:05.009Z,4.61
2023-02-20T12:38:22.162Z,4.70
2023-02-20T12:41:08.276Z,4.81
2023-02-20T12:44:12.928Z,4.88
2023-02-20T12:47:17.634Z,4.94
2023-02-20T12:49:55.920Z,5.02
2023-02-20T12:52:23.708Z,5.10
2023-02-20T12:55:21.314Z,5.15
2023-02-20T12:57:49.153Z,5.21
2023-02-20T13:00:34.936Z,5.27
2023-02-20T13:03:08.586Z,5.31
2023-02-20T13:05:42.442Z,5.36
2023-02-20T13:08:18.302Z,5.40
2023-02-20T13:10:57.363Z,5.41
2023-02-20T13:13:36.536Z,5.42
2023-02-20T13:16:14.562Z,5.44
2023-02-20T13:18:52.120Z,5.46
2023-02-20T13:21:26.379Z,5.51
2023-02-20T13:24:31.391Z,5.53
2023-02-20T13:27:06.793Z,5.58
2023-02-20T13:29:55.925Z,5.62
2023-02-20T13:32:30.282Z,5.66
2023-02-20T13:35:36.346Z,5.71
2023-02-20T13:38:24.932Z,5.78
2023-02-20T13:40:55.766Z,5.86
2023-02-20T13:43:23.676Z,5.94
2023-02-20T13:46:01.154Z,6.02
2023-02-20T13:48:29.226Z,6.08
2023-02-20T13:51:15.485Z,6.14
2023-02-20T13:53:50.800Z,6.18
2023-02-20T13:56:25.322Z,6.21
2023-02-20T13:58:58.903Z,6.24
2023-02-20T14:01:26.949Z,6.27
2023-02-20T14:04:06.321Z,6.29
2023-02-20T14:06:34.294Z,6.31
2023-02-20T14:09:10.889Z,6.33
2023-02-20T14:11:40.296Z,6.35
2023-02-20T14:14:11.901Z,6.36
2023-02-20T14:16:44.503Z,6.39
2023-02-20T14:19:21.177Z,6.41
2023-02-20T14:21:49.403Z,6.44
2023-02-20T14:24:31.205Z,6.46
2023-02-20T14:27:26.352Z,6.50
2023-02-20T14:30:26.122Z,6.55
2023-02-20T14:32:56.468Z,6.61
2023-02-20T14:35:49.086Z,6.65
2023-02-20T14:39:04.038Z,6.70
2023-02-20T14:41:32.518Z,6.76
2023-02-20T14:44:03.366Z,6.80
2023-02-20T14:46:34.542Z,6.86
2023-02-20T14:49:09.026Z,6.91
2023-02-20T14:51:37.738Z,6.96
2023-02-20T14:55:01.672Z,6.98
2023-02-20T14:57:30.399Z,7.01
2023-02-20T15:00:48.932Z,7.04
2023-02-20T15:03:30.989Z,7.11
2023-02-20T15:06:05.492Z,7.16
2023-02-20T15:08:36.361Z,7.20
2023-02-20T15:11:10.117Z,7.23
2023-02-20T15:13:41.447Z,7.26
2023-02-20T15:16:18.200Z,7.29
2023-02-20T15:18:50.121Z,7.33
2023-02-20T15:21:36.792Z,7.40
2023-02-20T15:24:30.212Z,7.47
2023-02-20T15:27:33.303Z,7.52
2023-02-20T15:30:12.620Z,7.59
2023-02-20T15:32:42.250Z,7.63
2023-02-20T15:35:17.444Z,7.66
2023-02-20T19:04:34.249Z,7.74
